sensor_id;sensor_type;location;lat;lon;timestamp;pressure;altitude;pressure_sealevel;temperature;humidity
36222;BME280;22266;52.340;4.962;2023-02-28T00:01:12;103212.34;;;5.59;63.94
36222;BME280;22266;52.340;4.962;2023-02-28T00:03:39;103209.91;;;5.56;63.96
36222;BME280;22266;52.340;4.962;2023-02-28T00:06:06;103211.81;;;5.54;64.51
36222;BME280;22266;52.340;4.962;2023-02-28T00:08:34;103208.59;;;5.49;64.47
36222;BME280;22266;52.340;4.962;2023-02-28T00:11:02;103206.13;;;5.45;64.24
36222;BME280;22266;52.340;4.962;2023-02-28T00:13:29;103209.88;;;5.43;64.86
36222;BME280;22266;52.340;4.962;2023-02-28T00:16:00;103207.28;;;5.41;64.44
36222;BME280;22266;52.340;4.962;2023-02-28T00:18:26;103213.16;;;5.46;64.85
36222;BME280;22266;52.340;4.962;2023-02-28T00:20:57;103200.47;;;5.50;64.88
36222;BME280;22266;52.340;4.962;2023-02-28T00:23:24;103210.09;;;5.53;64.54
36222;BME280;22266;52.340;4.962;2023-02-28T00:25:51;103205.63;;;5.53;64.71
36222;BME280;22266;52.340;4.962;2023-02-28T00:28:17;103213.75;;;5.52;65.07
36222;BME280;22266;52.340;4.962;2023-02-28T00:30:44;103217.34;;;5.51;66.00
36222;BME280;22266;52.340;4.962;2023-02-28T00:33:11;103211.81;;;5.54;66.25
36222;BME280;22266;52.340;4.962;2023-02-28T00:35:38;103209.66;;;5.59;66.45
36222;BME280;22266;52.340;4.962;2023-02-28T00:38:04;103217.50;;;5.62;66.66
36222;BME280;22266;52.340;4.962;2023-02-28T00:40:33;103216.75;;;5.60;66.42
36222;BME280;22266;52.340;4.962;2023-02-28T00:43:00;103209.47;;;5.62;67.11
36222;BME280;22266;52.340;4.962;2023-02-28T00:45:26;103209.38;;;5.63;67.35
36222;BME280;22266;52.340;4.962;2023-02-28T00:47:53;103204.78;;;5.65;67.25
36222;BME280;22266;52.340;4.962;2023-02-28T00:50:20;103206.81;;;5.62;67.71
36222;BME280;22266;52.340;4.962;2023-02-28T00:52:47;103199.44;;;5.65;67.38
36222;BME280;22266;52.340;4.962;2023-02-28T00:55:14;103196.03;;;5.63;67.07
36222;BME280;22266;52.340;4.962;2023-02-28T00:57:40;103198.69;;;5.63;68.05
36222;BME280;22266;52.340;4.962;2023-02-28T01:00:07;103197.09;;;5.61;67.10
36222;BME280;22266;52.340;4.962;2023-02-28T01:02:34;103196.97;;;5.62;67.75
36222;BME280;22266;52.340;4.962;2023-02-28T01:05:00;103196.03;;;5.63;67.82
36222;BME280;22266;52.340;4.962;2023-02-28T01:07:29;103199.63;;;5.62;67.94
36222;BME280;22266;52.340;4.962;2023-02-28T01:09:55;103201.38;;;5.63;67.92
36222;BME280;22266;52.340;4.962;2023-02-28T01:12:23;103208.50;;;5.63;67.73
36222;BME280;22266;52.340;4.962;2023-02-28T01:14:50;103201.66;;;5.59;67.97
36222;BME280;22266;52.340;4.962;2023-02-28T01:17:16;103198.13;;;5.58;67.97
36222;BME280;22266;52.340;4.962;2023-02-28T01:19:43;103195.47;;;5.58;67.87
36222;BME280;22266;52.340;4.962;2023-02-28T01:22:09;103198.13;;;5.58;68.36
36222;BME280;22266;52.340;4.962;2023-02-28T01:24:37;103183.84;;;5.59;68.57
36222;BME280;22266;52.340;4.962;2023-02-28T01:27:03;103175.81;;;5.59;68.35
36222;BME280;22266;52.340;4.962;2023-02-28T01:29:30;103174.66;;;5.63;68.57
36222;BME280;22266;52.340;4.962;2023-02-28T01:31:56;103176.34;;;5.64;68.32
36222;BME280;22266;52.340;4.962;2023-02-28T01:34:25;103180.72;;;5.65;68.44
36222;BME280;22266;52.340;4.962;2023-02-28T01:36:52;103177.22;;;5.65;68.62
36222;BME280;22266;52.340;4.962;2023-02-28T01:39:18;103176.34;;;5.64;68.65
36222;BME280;22266;52.340;4.962;2023-02-28T01:41:44;103174.84;;;5.60;68.49
36222;BME280;22266;52.340;4.962;2023-02-28T01:47:15;103175.59;;;5.62;68.86
36222;BME280;22266;52.340;4.962;2023-02-28T01:49:41;103172.84;;;5.64;69.01
36222;BME280;22266;52.340;4.962;2023-02-28T01:52:11;103171.97;;;5.63;69.36
36222;BME280;22266;52.340;4.962;2023-02-28T01:54:50;103179.34;;;5.60;68.95
36222;BME280;22266;52.340;4.962;2023-02-28T01:57:20;103173.22;;;5.58;69.16
36222;BME280;22266;52.340;4.962;2023-02-28T01:59:59;103173.88;;;5.61;69.37
36222;BME280;22266;52.340;4.962;2023-02-28T02:02:27;103170.25;;;5.62;69.65
36222;BME280;22266;52.340;4.962;2023-02-28T02:05:00;103174.53;;;5.65;69.97
36222;BME280;22266;52.340;4.962;2023-02-28T02:07:34;103169.72;;;5.70;69.74
36222;BME280;22266;52.340;4.962;2023-02-28T02:10:24;103167.16;;;5.68;69.07
36222;BME280;22266;52.340;4.962;2023-02-28T02:18:26;103148.47;;;5.68;69.64
36222;BME280;22266;52.340;4.962;2023-02-28T02:21:16;103142.16;;;5.69;69.41
36222;BME280;22266;52.340;4.962;2023-02-28T02:32:46;103156.56;;;5.67;69.61
36222;BME280;22266;52.340;4.962;2023-02-28T02:38:04;103149.41;;;5.55;70.29
36222;BME280;22266;52.340;4.962;2023-02-28T02:40:44;103144.03;;;5.55;70.47
36222;BME280;22266;52.340;4.962;2023-02-28T02:43:24;103151.00;;;5.57;70.49
36222;BME280;22266;52.340;4.962;2023-02-28T02:45:58;103153.03;;;5.54;70.27
36222;BME280;22266;52.340;4.962;2023-02-28T02:48:30;103152.84;;;5.57;70.40
36222;BME280;22266;52.340;4.962;2023-02-28T02:51:01;103159.13;;;5.56;70.89
36222;BME280;22266;52.340;4.962;2023-02-28T02:53:35;103143.97;;;5.56;70.52
36222;BME280;22266;52.340;4.962;2023-02-28T02:56:06;103146.63;;;5.56;71.07
36222;BME280;22266;52.340;4.962;2023-02-28T02:58:37;103153.69;;;5.57;70.48
36222;BME280;22266;52.340;4.962;2023-02-28T03:01:14;103143.84;;;5.58;71.23
36222;BME280;22266;52.340;4.962;2023-02-28T03:03:43;103149.97;;;5.60;70.92
36222;BME280;22266;52.340;4.962;2023-02-28T03:06:11;103155.19;;;5.61;70.64
36222;BME280;22266;52.340;4.962;2023-02-28T03:08:38;103156.16;;;5.60;70.64
36222;BME280;22266;52.340;4.962;2023-02-28T03:11:10;103158.91;;;5.59;70.54
36222;BME280;22266;52.340;4.962;2023-02-28T03:13:49;103155.50;;;5.57;70.69
36222;BME280;22266;52.340;4.962;2023-02-28T03:27:10;103157.56;;;5.26;69.20
36222;BME280;22266;52.340;4.962;2023-02-28T03:29:42;103147.66;;;5.28;69.23
36222;BME280;22266;52.340;4.962;2023-02-28T03:32:19;103139.94;;;5.24;67.78
36222;BME280;22266;52.340;4.962;2023-02-28T03:34:55;103142.50;;;5.25;67.02
36222;BME280;22266;52.340;4.962;2023-02-28T03:37:23;103142.50;;;5.25;67.05
36222;BME280;22266;52.340;4.962;2023-02-28T03:39:57;103146.88;;;5.26;66.97
36222;BME280;22266;52.340;4.962;2023-02-28T03:42:28;103139.84;;;5.25;66.30
36222;BME280;22266;52.340;4.962;2023-02-28T03:45:00;103146.03;;;5.26;66.82
36222;BME280;22266;52.340;4.962;2023-02-28T03:50:17;103158.13;;;5.31;65.78
36222;BME280;22266;52.340;4.962;2023-02-28T03:52:57;103163.22;;;5.21;65.86
36222;BME280;22266;52.340;4.962;2023-02-28T03:55:34;103163.13;;;5.23;66.12
36222;BME280;22266;52.340;4.962;2023-02-28T04:01:16;103162.56;;;5.18;66.36
36222;BME280;22266;52.340;4.962;2023-02-28T04:03:45;103156.38;;;5.17;66.93
36222;BME280;22266;52.340;4.962;2023-02-28T04:06:18;103159.16;;;5.16;66.54
36222;BME280;22266;52.340;4.962;2023-02-28T04:08:45;103152.50;;;5.09;67.00
36222;BME280;22266;52.340;4.962;2023-02-28T04:11:20;103167.47;;;5.11;66.95
36222;BME280;22266;52.340;4.962;2023-02-28T04:13:47;103161.28;;;5.11;66.57
36222;BME280;22266;52.340;4.962;2023-02-28T04:16:14;103156.94;;;4.95;67.16
36222;BME280;22266;52.340;4.962;2023-02-28T04:19:00;103160.97;;;4.88;67.57
36222;BME280;22266;52.340;4.962;2023-02-28T04:21:39;103152.94;;;4.88;67.92
36222;BME280;22266;52.340;4.962;2023-02-28T04:24:08;103155.81;;;4.85;67.75
36222;BME280;22266;52.340;4.962;2023-02-28T04:26:42;103152.00;;;4.89;68.20
36222;BME280;22266;52.340;4.962;2023-02-28T04:29:14;103150.94;;;4.92;68.10
36222;BME280;22266;52.340;4.962;2023-02-28T04:31:43;103155.72;;;4.87;68.13
36222;BME280;22266;52.340;4.962;2023-02-28T04:34:10;103151.13;;;4.89;68.11
36222;BME280;22266;52.340;4.962;2023-02-28T04:36:36;103149.25;;;4.91;67.67
36222;BME280;22266;52.340;4.962;2023-02-28T04:39:03;103139.97;;;4.96;68.41
36222;BME280;22266;52.340;4.962;2023-02-28T04:41:30;103147.56;;;5.03;68.12
36222;BME280;22266;52.340;4.962;2023-02-28T04:43:58;103146.41;;;5.07;67.75
36222;BME280;22266;52.340;4.962;2023-02-28T04:46:25;103146.25;;;4.95;67.28
36222;BME280;22266;52.340;4.962;2023-02-28T04:48:51;103142.81;;;4.93;68.14
36222;BME280;22266;52.340;4.962;2023-02-28T04:51:18;103149.00;;;4.94;67.66
36222;BME280;22266;52.340;4.962;2023-02-28T04:53:46;103143.47;;;4.97;67.78
36222;BME280;22266;52.340;4.962;2023-02-28T04:56:15;103141.97;;;4.93;67.10
36222;BME280;22266;52.340;4.962;2023-02-28T04:58:43;103139.59;;;4.88;67.67
36222;BME280;22266;52.340;4.962;2023-02-28T05:01:29;103141.13;;;4.92;68.04
36222;BME280;22266;52.340;4.962;2023-02-28T05:03:58;103148.81;;;4.97;67.96
36222;BME280;22266;52.340;4.962;2023-02-28T05:06:26;103148.63;;;5.00;67.65
36222;BME280;22266;52.340;4.962;2023-02-28T05:08:53;103142.44;;;5.00;67.82
36222;BME280;22266;52.340;4.962;2023-02-28T05:11:32;103143.94;;;5.04;67.65
36222;BME280;22266;52.340;4.962;2023-02-28T05:14:08;103142.78;;;5.08;68.14
36222;BME280;22266;52.340;4.962;2023-02-28T05:16:36;103147.28;;;5.07;67.44
36222;BME280;22266;52.340;4.962;2023-02-28T05:19:03;103151.84;;;5.05;67.82
36222;BME280;22266;52.340;4.962;2023-02-28T05:21:34;103149.09;;;5.07;67.31
36222;BME280;22266;52.340;4.962;2023-02-28T05:24:03;103145.00;;;5.01;67.62
36222;BME280;22266;52.340;4.962;2023-02-28T05:26:30;103145.19;;;4.98;67.38
36222;BME280;22266;52.340;4.962;2023-02-28T05:28:57;103146.06;;;4.99;67.50
36222;BME280;22266;52.340;4.962;2023-02-28T05:31:23;103148.16;;;4.93;67.55
36222;BME280;22266;52.340;4.962;2023-02-28T05:33:50;103162.22;;;4.83;67.26
36222;BME280;22266;52.340;4.962;2023-02-28T05:36:17;103163.22;;;4.67;68.60
36222;BME280;22266;52.340;4.962;2023-02-28T05:38:46;103162.06;;;4.57;69.16
36222;BME280;22266;52.340;4.962;2023-02-28T05:41:13;103162.97;;;4.58;70.13
36222;BME280;22266;52.340;4.962;2023-02-28T05:43:39;103168.66;;;4.52;69.85
36222;BME280;22266;52.340;4.962;2023-02-28T05:46:07;103165.22;;;4.50;70.03
36222;BME280;22266;52.340;4.962;2023-02-28T05:48:35;103163.34;;;4.52;70.51
36222;BME280;22266;52.340;4.962;2023-02-28T05:51:02;103163.34;;;4.52;70.49
36222;BME280;22266;52.340;4.962;2023-02-28T05:53:30;103160.78;;;4.50;70.91
36222;BME280;22266;52.340;4.962;2023-02-28T05:55:57;103160.00;;;4.48;70.87
36222;BME280;22266;52.340;4.962;2023-02-28T05:58:24;103160.84;;;4.49;71.34
36222;BME280;22266;52.340;4.962;2023-02-28T06:00:57;103161.63;;;4.51;71.23
36222;BME280;22266;52.340;4.962;2023-02-28T06:03:24;103154.66;;;4.48;71.77
36222;BME280;22266;52.340;4.962;2023-02-28T06:05:51;103161.03;;;4.45;71.61
36222;BME280;22266;52.340;4.962;2023-02-28T06:08:18;103164.00;;;4.41;72.32
36222;BME280;22266;52.340;4.962;2023-02-28T06:10:44;103172.09;;;4.39;72.30
36222;BME280;22266;52.340;4.962;2023-02-28T06:13:11;103171.63;;;4.33;72.64
36222;BME280;22266;52.340;4.962;2023-02-28T06:15:39;103170.22;;;4.27;72.46
36222;BME280;22266;52.340;4.962;2023-02-28T06:18:05;103175.06;;;4.20;72.68
36222;BME280;22266;52.340;4.962;2023-02-28T06:20:32;103185.06;;;4.17;73.75
36222;BME280;22266;52.340;4.962;2023-02-28T06:22:59;103183.16;;;4.19;73.69
36222;BME280;22266;52.340;4.962;2023-02-28T06:25:27;103182.13;;;4.21;73.31
36222;BME280;22266;52.340;4.962;2023-02-28T06:27:54;103186.41;;;4.24;73.70
36222;BME280;22266;52.340;4.962;2023-02-28T06:30:21;103187.06;;;4.28;73.63
36222;BME280;22266;52.340;4.962;2023-02-28T06:32:51;103186.22;;;4.27;73.52
36222;BME280;22266;52.340;4.962;2023-02-28T06:35:18;103188.84;;;4.13;73.79
36222;BME280;22266;52.340;4.962;2023-02-28T06:37:45;103188.47;;;3.90;73.37
36222;BME280;22266;52.340;4.962;2023-02-28T06:40:11;103183.88;;;3.78;74.34
36222;BME280;22266;52.340;4.962;2023-02-28T06:42:39;103175.91;;;3.78;74.74
36222;BME280;22266;52.340;4.962;2023-02-28T06:45:06;103187.13;;;3.83;74.56
36222;BME280;22266;52.340;4.962;2023-02-28T06:47:37;103186.38;;;3.81;74.19
36222;BME280;22266;52.340;4.962;2023-02-28T06:50:04;103191.09;;;3.76;74.06
36222;BME280;22266;52.340;4.962;2023-02-28T06:52:31;103195.50;;;3.77;74.35
36222;BME280;22266;52.340;4.962;2023-02-28T06:54:58;103203.84;;;3.71;74.17
36222;BME280;22266;52.340;4.962;2023-02-28T06:57:31;103206.78;;;3.66;74.33
36222;BME280;22266;52.340;4.962;2023-02-28T07:00:00;103207.81;;;3.64;74.34
36222;BME280;22266;52.340;4.962;2023-02-28T07:02:27;103214.88;;;3.65;74.30
36222;BME280;22266;52.340;4.962;2023-02-28T07:04:54;103216.75;;;3.63;74.44
36222;BME280;22266;52.340;4.962;2023-02-28T07:07:20;103208.25;;;3.56;73.76
36222;BME280;22266;52.340;4.962;2023-02-28T07:09:47;103216.53;;;3.52;74.10
36222;BME280;22266;52.340;4.962;2023-02-28T07:12:14;103220.31;;;3.47;73.97
36222;BME280;22266;52.340;4.962;2023-02-28T07:14:40;103221.81;;;3.37;73.98
36222;BME280;22266;52.340;4.962;2023-02-28T07:17:09;103227.03;;;3.39;74.11
36222;BME280;22266;52.340;4.962;2023-02-28T07:19:37;103230.13;;;3.31;73.92
36222;BME280;22266;52.340;4.962;2023-02-28T07:22:04;103229.22;;;3.32;74.25
36222;BME280;22266;52.340;4.962;2023-02-28T07:24:31;103230.81;;;3.35;74.06
36222;BME280;22266;52.340;4.962;2023-02-28T07:26:57;103234.34;;;3.35;74.15
36222;BME280;22266;52.340;4.962;2023-02-28T07:29:23;103230.75;;;3.36;74.19
36222;BME280;22266;52.340;4.962;2023-02-28T07:31:50;103229.88;;;3.36;74.34
36222;BME280;22266;52.340;4.962;2023-02-28T07:34:20;103226.28;;;3.37;74.26
36222;BME280;22266;52.340;4.962;2023-02-28T07:36:46;103237.00;;;3.35;74.11
36222;BME280;22266;52.340;4.962;2023-02-28T07:39:13;103242.31;;;3.35;74.17
36222;BME280;22266;52.340;4.962;2023-02-28T07:41:39;103237.00;;;3.35;74.47
36222;BME280;22266;52.340;4.962;2023-02-28T07:44:10;103236.13;;;3.35;74.28
36222;BME280;22266;52.340;4.962;2023-02-28T07:46:37;103237.38;;;3.29;74.36
36222;BME280;22266;52.340;4.962;2023-02-28T07:49:04;103235.38;;;3.33;74.03
36222;BME280;22266;52.340;4.962;2023-02-28T07:51:31;103231.66;;;3.35;74.39
36222;BME280;22266;52.340;4.962;2023-02-28T07:53:58;103231.59;;;3.37;74.47
36222;BME280;22266;52.340;4.962;2023-02-28T07:56:24;103228.84;;;3.38;74.27
36222;BME280;22266;52.340;4.962;2023-02-28T07:58:51;103230.56;;;3.39;74.43
36222;BME280;22266;52.340;4.962;2023-02-28T08:01:17;103230.38;;;3.42;74.46
36222;BME280;22266;52.340;4.962;2023-02-28T08:03:45;103229.44;;;3.43;74.42
36222;BME280;22266;52.340;4.962;2023-02-28T08:06:17;103239.16;;;3.44;74.44
36222;BME280;22266;52.340;4.962;2023-02-28T08:08:44;103237.41;;;3.43;74.13
36222;BME280;22266;52.340;4.962;2023-02-28T08:11:10;103226.88;;;3.42;74.31
36222;BME280;22266;52.340;4.962;2023-02-28T08:13:37;103232.09;;;3.43;74.28
36222;BME280;22266;52.340;4.962;2023-02-28T08:16:04;103231.16;;;3.44;74.24
36222;BME280;22266;52.340;4.962;2023-02-28T08:18:32;103226.59;;;3.46;74.32
36222;BME280;22266;52.340;4.962;2023-02-28T08:20:58;103222.28;;;3.44;74.47
36222;BME280;22266;52.340;4.962;2023-02-28T08:23:25;103241.72;;;3.46;74.50
36222;BME280;22266;52.340;4.962;2023-02-28T08:25:55;103238.94;;;3.47;74.47
36222;BME280;22266;52.340;4.962;2023-02-28T08:28:22;103221.25;;;3.46;74.90
36222;BME280;22266;52.340;4.962;2023-02-28T08:30:52;103243.16;;;3.52;74.68
36222;BME280;22266;52.340;4.962;2023-02-28T08:33:18;103229.66;;;3.55;74.89
36222;BME280;22266;52.340;4.962;2023-02-28T08:35:45;103210.06;;;3.56;75.06
36222;BME280;22266;52.340;4.962;2023-02-28T08:38:11;103216.06;;;3.59;74.83
36222;BME280;22266;52.340;4.962;2023-02-28T08:40:38;103220.38;;;3.62;74.92
36222;BME280;22266;52.340;4.962;2023-02-28T08:43:05;103225.44;;;3.66;75.03
36222;BME280;22266;52.340;4.962;2023-02-28T08:45:31;103225.44;;;3.66;75.27
36222;BME280;22266;52.340;4.962;2023-02-28T08:47:58;103221.06;;;3.65;74.99
36222;BME280;22266;52.340;4.962;2023-02-28T08:50:24;103219.16;;;3.67;75.04
36222;BME280;22266;52.340;4.962;2023-02-28T08:52:51;103219.06;;;3.69;75.36
36222;BME280;22266;52.340;4.962;2023-02-28T08:55:17;103222.50;;;3.71;75.72
36222;BME280;22266;52.340;4.962;2023-02-28T08:57:43;103220.50;;;3.75;75.26
36222;BME280;22266;52.340;4.962;2023-02-28T09:00:10;103220.31;;;3.78;75.23
36222;BME280;22266;52.340;4.962;2023-02-28T09:02:40;103217.38;;;3.82;75.62
36222;BME280;22266;52.340;4.962;2023-02-28T09:05:08;103220.63;;;3.87;75.19
36222;BME280;22266;52.340;4.962;2023-02-28T09:07:34;103216.81;;;3.91;75.40
36222;BME280;22266;52.340;4.962;2023-02-28T09:10:01;103211.22;;;3.96;75.38
36222;BME280;22266;52.340;4.962;2023-02-28T09:12:33;103217.16;;;4.01;75.13
36222;BME280;22266;52.340;4.962;2023-02-28T09:14:59;103224.19;;;4.02;75.19
36222;BME280;22266;52.340;4.962;2023-02-28T09:17:26;103225.88;;;4.03;75.06
36222;BME280;22266;52.340;4.962;2023-02-28T09:19:56;103229.50;;;4.02;74.76
36222;BME280;22266;52.340;4.962;2023-02-28T09:22:23;103228.44;;;4.05;75.01
36222;BME280;22266;52.340;4.962;2023-02-28T09:24:49;103231.91;;;4.07;74.91
36222;BME280;22266;52.340;4.962;2023-02-28T09:27:16;103228.09;;;4.11;75.33
36222;BME280;22266;52.340;4.962;2023-02-28T09:29:42;103231.44;;;4.14;75.03
36222;BME280;22266;52.340;4.962;2023-02-28T09:32:09;103231.25;;;4.17;75.26
36222;BME280;22266;52.340;4.962;2023-02-28T09:34:35;103232.78;;;4.21;75.30
36222;BME280;22266;52.340;4.962;2023-02-28T09:37:03;103237.81;;;4.26;75.37
36222;BME280;22266;52.340;4.962;2023-02-28T09:39:29;103239.53;;;4.27;75.00
36222;BME280;22266;52.340;4.962;2023-02-28T09:41:56;103234.09;;;4.29;74.92
36222;BME280;22266;52.340;4.962;2023-02-28T09:44:34;103242.00;;;4.30;75.10
36222;BME280;22266;52.340;4.962;2023-02-28T09:47:10;103238.09;;;4.21;74.56
36222;BME280;22266;52.340;4.962;2023-02-28T09:49:42;103236.47;;;4.19;75.03
36222;BME280;22266;52.340;4.962;2023-02-28T09:52:16;103244.09;;;4.11;74.24
36222;BME280;22266;52.340;4.962;2023-02-28T09:54:44;103248.47;;;4.12;74.94
36222;BME280;22266;52.340;4.962;2023-02-28T09:57:19;103249.13;;;4.15;74.81
36222;BME280;22266;52.340;4.962;2023-02-28T10:05:27;103236.25;;;4.08;74.74
36222;BME280;22266;52.340;4.962;2023-02-28T10:08:18;103247.38;;;4.00;73.97
36222;BME280;22266;52.340;4.962;2023-02-28T10:10:51;103244.69;;;3.86;73.20
36222;BME280;22266;52.340;4.962;2023-02-28T10:13:57;103256.56;;;3.80;74.05
36222;BME280;22266;52.340;4.962;2023-02-28T10:24:22;103246.75;;;4.11;74.13
36222;BME280;22266;52.340;4.962;2023-02-28T10:26:52;103253.50;;;4.02;73.60
36222;BME280;22266;52.340;4.962;2023-02-28T10:29:22;103252.25;;;4.08;73.35
36222;BME280;22266;52.340;4.962;2023-02-28T10:31:48;103243.41;;;4.07;72.15
36222;BME280;22266;52.340;4.962;2023-02-28T10:34:15;103258.38;;;4.10;72.00
36222;BME280;22266;52.340;4.962;2023-02-28T10:36:42;103255.31;;;4.16;71.25
36222;BME280;22266;52.340;4.962;2023-02-28T10:39:42;103251.63;;;4.18;70.60
36222;BME280;22266;52.340;4.962;2023-02-28T10:42:27;103249.53;;;4.24;70.25
36222;BME280;22266;52.340;4.962;2023-02-28T10:45:15;103260.47;;;4.33;69.84
36222;BME280;22266;52.340;4.962;2023-02-28T10:58:58;103246.28;;;4.61;66.32
36222;BME280;22266;52.340;4.962;2023-02-28T11:03:58;103225.25;;;4.57;65.21
36222;BME280;22266;52.340;4.962;2023-02-28T11:06:30;103229.44;;;4.61;64.31
36222;BME280;22266;52.340;4.962;2023-02-28T11:09:00;103233.25;;;4.71;63.71
36222;BME280;22266;52.340;4.962;2023-02-28T11:11:30;103232.66;;;4.80;62.90
36222;BME280;22266;52.340;4.962;2023-02-28T11:14:18;103231.59;;;4.83;61.67
36222;BME280;22266;52.340;4.962;2023-02-28T11:16:46;103227.78;;;4.87;61.24
36222;BME280;22266;52.340;4.962;2023-02-28T11:19:26;103213.59;;;4.86;60.35
36222;BME280;22266;52.340;4.962;2023-02-28T11:22:01;103225.00;;;4.88;60.70
36222;BME280;22266;52.340;4.962;2023-02-28T11:24:42;103219.84;;;4.85;59.49
36222;BME280;22266;52.340;4.962;2023-02-28T11:27:26;103224.16;;;4.88;59.67
36222;BME280;22266;52.340;4.962;2023-02-28T11:32:49;103219.00;;;4.99;58.88
36222;BME280;22266;52.340;4.962;2023-02-28T11:35:27;103210.31;;;4.95;58.13
36222;BME280;22266;52.340;4.962;2023-02-28T11:37:56;103209.81;;;5.03;58.15
36222;BME280;22266;52.340;4.962;2023-02-28T11:40:51;103211.69;;;5.15;57.91
36222;BME280;22266;52.340;4.962;2023-02-28T11:46:41;103204.94;;;5.37;56.74
36222;BME280;22266;52.340;4.962;2023-02-28T11:49:25;103206.75;;;5.36;56.47
36222;BME280;22266;52.340;4.962;2023-02-28T11:52:01;103195.88;;;5.39;56.02
36222;BME280;22266;52.340;4.962;2023-02-28T11:54:40;103190.22;;;5.44;55.79
36222;BME280;22266;52.340;4.962;2023-02-28T11:57:47;103194.59;;;5.45;55.22
36222;BME280;22266;52.340;4.962;2023-02-28T12:06:18;103181.38;;;5.69;53.53
36222;BME280;22266;52.340;4.962;2023-02-28T12:09:03;103177.75;;;5.83;54.47
36222;BME280;22266;52.340;4.962;2023-02-28T12:11:43;103173.63;;;5.91;54.06
36222;BME280;22266;52.340;4.962;2023-02-28T12:22:53;103168.06;;;6.20;51.96
36222;BME280;22266;52.340;4.962;2023-02-28T12:27:54;103164.22;;;5.99;50.47
36222;BME280;22266;52.340;4.962;2023-02-28T12:30:30;103161.00;;;5.93;50.28
36222;BME280;22266;52.340;4.962;2023-02-28T12:38:14;103158.00;;;6.11;50.70
36222;BME280;22266;52.340;4.962;2023-02-28T12:40:53;103149.56;;;6.17;50.63
36222;BME280;22266;52.340;4.962;2023-02-28T12:43:22;103160.97;;;6.32;52.12
36222;BME280;22266;52.340;4.962;2023-02-28T12:45:57;103151.22;;;6.43;51.84
36222;BME280;22266;52.340;4.962;2023-02-28T12:48:50;103151.50;;;6.52;49.96
36222;BME280;22266;52.340;4.962;2023-02-28T12:51:19;103143.81;;;6.47;49.80
36222;BME280;22266;52.340;4.962;2023-02-28T12:57:12;103141.06;;;6.49;50.26
36222;BME280;22266;52.340;4.962;2023-02-28T13:05:07;103147.94;;;6.64;49.67
36222;BME280;22266;52.340;4.962;2023-02-28T13:07:52;103148.19;;;6.61;48.18
36222;BME280;22266;52.340;4.962;2023-02-28T13:10:24;103139.91;;;6.64;49.39
36222;BME280;22266;52.340;4.962;2023-02-28T13:13:03;103137.16;;;6.65;49.70
36222;BME280;22266;52.340;4.962;2023-02-28T13:15:30;103131.53;;;6.81;48.85
36222;BME280;22266;52.340;4.962;2023-02-28T13:18:00;103130.69;;;6.81;47.60
36222;BME280;22266;52.340;4.962;2023-02-28T13:20:35;103138.72;;;6.68;47.88
36222;BME280;22266;52.340;4.962;2023-02-28T13:23:02;103133.91;;;6.73;48.33
36222;BME280;22266;52.340;4.962;2023-02-28T13:28:03;103122.19;;;6.87;48.95
36222;BME280;22266;52.340;4.962;2023-02-28T13:33:27;103122.41;;;6.84;49.01
36222;BME280;22266;52.340;4.962;2023-02-28T13:38:40;103124.97;;;6.85;49.16
36222;BME280;22266;52.340;4.962;2023-02-28T13:49:25;103117.72;;;6.99;50.21
36222;BME280;22266;52.340;4.962;2023-02-28T13:51:54;103119.72;;;6.84;50.40
36222;BME280;22266;52.340;4.962;2023-02-28T13:55:14;103110.34;;;6.78;50.53
36222;BME280;22266;52.340;4.962;2023-02-28T13:57:40;103113.13;;;6.53;52.02
36222;BME280;22266;52.340;4.962;2023-02-28T14:00:34;103116.97;;;6.36;52.79
36222;BME280;22266;52.340;4.962;2023-02-28T14:05:43;103107.94;;;6.26;53.27
36222;BME280;22266;52.340;4.962;2023-02-28T14:08:18;103105.97;;;6.28;53.94
36222;BME280;22266;52.340;4.962;2023-02-28T14:10:49;103109.84;;;6.36;54.09
36222;BME280;22266;52.340;4.962;2023-02-28T14:16:13;103100.53;;;6.29;54.64
36222;BME280;22266;52.340;4.962;2023-02-28T14:18:55;103105.97;;;6.28;54.05
36222;BME280;22266;52.340;4.962;2023-02-28T14:21:28;103101.59;;;6.27;54.83
36222;BME280;22266;52.340;4.962;2023-02-28T14:33:04;103098.28;;;6.23;54.69
36222;BME280;22266;52.340;4.962;2023-02-28T14:37:53;103093.81;;;6.11;54.44
36222;BME280;22266;52.340;4.962;2023-02-28T14:40:30;103101.88;;;5.98;54.65
36222;BME280;22266;52.340;4.962;2023-02-28T14:43:02;103098.75;;;5.91;55.44
36222;BME280;22266;52.340;4.962;2023-02-28T14:45:32;103086.47;;;5.89;55.31
36222;BME280;22266;52.340;4.962;2023-02-28T14:48:01;103090.09;;;5.88;55.46
36222;BME280;22266;52.340;4.962;2023-02-28T14:50:34;103099.81;;;5.89;55.28
36222;BME280;22266;52.340;4.962;2023-02-28T14:53:02;103092.22;;;5.83;53.20
36222;BME280;22266;52.340;4.962;2023-02-28T14:55:35;103095.00;;;5.81;54.99
36222;BME280;22266;52.340;4.962;2023-02-28T14:58:06;103085.94;;;5.84;55.03
36222;BME280;22266;52.340;4.962;2023-02-28T15:00:40;103095.88;;;5.82;55.59
36222;BME280;22266;52.340;4.962;2023-02-28T15:03:32;103088.19;;;5.77;54.74
36222;BME280;22266;52.340;4.962;2023-02-28T15:06:01;103092.75;;;5.75;54.65
36222;BME280;22266;52.340;4.962;2023-02-28T15:08:29;103090.72;;;5.79;54.63
36222;BME280;22266;52.340;4.962;2023-02-28T15:11:04;103092.56;;;5.78;54.92
36222;BME280;22266;52.340;4.962;2023-02-28T15:13:40;103087.31;;;5.77;54.97
36222;BME280;22266;52.340;4.962;2023-02-28T15:16:11;103085.38;;;5.79;54.25
36222;BME280;22266;52.340;4.962;2023-02-28T15:18:48;103087.72;;;5.83;54.80
36222;BME280;22266;52.340;4.962;2023-02-28T15:21:21;103090.66;;;5.80;55.24
36222;BME280;22266;52.340;4.962;2023-02-28T15:26:27;103084.75;;;5.75;55.23
36222;BME280;22266;52.340;4.962;2023-02-28T15:29:03;103079.84;;;5.82;55.83
36222;BME280;22266;52.340;4.962;2023-02-28T15:31:43;103091.03;;;5.87;55.72
36222;BME280;22266;52.340;4.962;2023-02-28T15:34:35;103089.34;;;5.86;54.92
36222;BME280;22266;52.340;4.962;2023-02-28T15:37:38;103096.00;;;5.80;54.42